sensor_id;sensor_type;location;lat;lon;timestamp;temperature;humidity
14188;DHT22;7175;51.978;5.330;2022-09-19T00:02:03;8.80;99.90
14188;DHT22;7175;51.978;5.330;2022-09-19T00:04:32;8.80;99.90
14188;DHT22;7175;51.978;5.330;2022-09-19T00:07:02;9.00;99.90
14188;DHT22;7175;51.978;5.330;2022-09-19T00:09:32;9.00;99.90
14188;DHT22;7175;51.978;5.330;2022-09-19T00:12:01;9.10;99.90
14188;DHT22;7175;51.978;5.330;2022-09-19T00:14:32;9.20;99.90
14188;DHT22;7175;51.978;5.330;2022-09-19T00:17:03;9.20;99.90
14188;DHT22;7175;51.978;5.330;2022-09-19T00:19:34;9.20;99.90
14188;DHT22;7175;51.978;5.330;2022-09-19T00:22:03;9.20;99.90
14188;DHT22;7175;51.978;5.330;2022-09-19T00:24:33;9.20;99.90
14188;DHT22;7175;51.978;5.330;2022-09-19T00:27:14;9.20;99.90
14188;DHT22;7175;51.978;5.330;2022-09-19T00:29:45;9.20;99.90
14188;DHT22;7175;51.978;5.330;2022-09-19T00:32:16;9.30;99.90
14188;DHT22;7175;51.978;5.330;2022-09-19T00:34:48;9.30;99.90
14188;DHT22;7175;51.978;5.330;2022-09-19T00:37:20;9.40;99.90
14188;DHT22;7175;51.978;5.330;2022-09-19T00:39:51;9.40;99.90
14188;DHT22;7175;51.978;5.330;2022-09-19T00:42:23;9.50;99.90
14188;DHT22;7175;51.978;5.330;2022-09-19T00:44:58;9.50;99.90
14188;DHT22;7175;51.978;5.330;2022-09-19T00:47:31;9.60;99.90
14188;DHT22;7175;51.978;5.330;2022-09-19T00:50:07;9.60;99.90
14188;DHT22;7175;51.978;5.330;2022-09-19T00:52:41;9.60;99.90
14188;DHT22;7175;51.978;5.330;2022-09-19T00:55:12;9.70;99.90
14188;DHT22;7175;51.978;5.330;2022-09-19T00:57:55;9.70;99.90
14188;DHT22;7175;51.978;5.330;2022-09-19T01:00:27;9.70;99.90
14188;DHT22;7175;51.978;5.330;2022-09-19T01:02:56;9.80;99.90
14188;DHT22;7175;51.978;5.330;2022-09-19T01:05:31;9.80;99.90
14188;DHT22;7175;51.978;5.330;2022-09-19T01:11:26;9.70;99.90
14188;DHT22;7175;51.978;5.330;2022-09-19T01:14:07;9.70;99.90
14188;DHT22;7175;51.978;5.330;2022-09-19T01:16:41;9.60;99.90
14188;DHT22;7175;51.978;5.330;2022-09-19T01:19:22;9.60;99.90
14188;DHT22;7175;51.978;5.330;2022-09-19T01:22:04;9.70;99.90
14188;DHT22;7175;51.978;5.330;2022-09-19T01:24:55;9.60;99.90
14188;DHT22;7175;51.978;5.330;2022-09-19T01:27:37;9.50;99.90
14188;DHT22;7175;51.978;5.330;2022-09-19T01:30:11;9.50;99.90
14188;DHT22;7175;51.978;5.330;2022-09-19T01:32:45;9.50;99.90
14188;DHT22;7175;51.978;5.330;2022-09-19T01:35:21;9.50;99.90
14188;DHT22;7175;51.978;5.330;2022-09-19T01:37:54;9.50;99.90
14188;DHT22;7175;51.978;5.330;2022-09-19T01:40:23;9.50;99.90
14188;DHT22;7175;51.978;5.330;2022-09-19T01:42:53;9.40;99.90
14188;DHT22;7175;51.978;5.330;2022-09-19T01:45:25;9.50;99.90
14188;DHT22;7175;51.978;5.330;2022-09-19T01:48:01;9.40;99.90
14188;DHT22;7175;51.978;5.330;2022-09-19T01:50:48;9.40;99.90
14188;DHT22;7175;51.978;5.330;2022-09-19T01:53:31;9.40;99.90
14188;DHT22;7175;51.978;5.330;2022-09-19T01:56:10;9.40;99.90
14188;DHT22;7175;51.978;5.330;2022-09-19T01:58:42;9.30;99.90
14188;DHT22;7175;51.978;5.330;2022-09-19T02:01:20;9.30;99.90
14188;DHT22;7175;51.978;5.330;2022-09-19T02:03:57;9.30;99.90
14188;DHT22;7175;51.978;5.330;2022-09-19T02:06:35;9.30;99.90
14188;DHT22;7175;51.978;5.330;2022-09-19T02:09:18;9.30;99.90
14188;DHT22;7175;51.978;5.330;2022-09-19T02:11:50;9.30;99.90
14188;DHT22;7175;51.978;5.330;2022-09-19T02:14:23;9.30;99.90
14188;DHT22;7175;51.978;5.330;2022-09-19T02:16:59;9.30;99.90
14188;DHT22;7175;51.978;5.330;2022-09-19T02:19:33;9.30;99.90
14188;DHT22;7175;51.978;5.330;2022-09-19T02:22:07;9.30;99.90
14188;DHT22;7175;51.978;5.330;2022-09-19T02:24:38;9.30;99.90
14188;DHT22;7175;51.978;5.330;2022-09-19T02:27:09;9.30;99.90
14188;DHT22;7175;51.978;5.330;2022-09-19T02:29:42;9.30;99.90
14188;DHT22;7175;51.978;5.330;2022-09-19T02:32:14;9.30;99.90
14188;DHT22;7175;51.978;5.330;2022-09-19T02:34:45;9.10;99.90
14188;DHT22;7175;51.978;5.330;2022-09-19T02:37:18;9.10;99.90
14188;DHT22;7175;51.978;5.330;2022-09-19T02:39:57;9.10;99.90
14188;DHT22;7175;51.978;5.330;2022-09-19T02:42:33;9.00;99.90
14188;DHT22;7175;51.978;5.330;2022-09-19T02:45:08;9.10;99.90
14188;DHT22;7175;51.978;5.330;2022-09-19T02:47:47;9.10;99.90
14188;DHT22;7175;51.978;5.330;2022-09-19T02:50:22;9.10;99.90
14188;DHT22;7175;51.978;5.330;2022-09-19T02:52:53;9.10;99.90
14188;DHT22;7175;51.978;5.330;2022-09-19T02:55:26;9.10;99.90
14188;DHT22;7175;51.978;5.330;2022-09-19T02:57:58;9.10;99.90
14188;DHT22;7175;51.978;5.330;2022-09-19T03:00:30;9.20;99.90
14188;DHT22;7175;51.978;5.330;2022-09-19T03:03:06;9.20;99.90
14188;DHT22;7175;51.978;5.330;2022-09-19T03:06:00;9.30;99.90
14188;DHT22;7175;51.978;5.330;2022-09-19T03:08:31;9.40;99.90
14188;DHT22;7175;51.978;5.330;2022-09-19T03:11:06;9.30;99.90
14188;DHT22;7175;51.978;5.330;2022-09-19T03:13:37;9.30;99.90
14188;DHT22;7175;51.978;5.330;2022-09-19T03:16:09;9.50;99.90
14188;DHT22;7175;51.978;5.330;2022-09-19T03:18:42;9.50;99.90
14188;DHT22;7175;51.978;5.330;2022-09-19T03:21:13;9.50;99.90
14188;DHT22;7175;51.978;5.330;2022-09-19T03:23:45;9.50;99.90
14188;DHT22;7175;51.978;5.330;2022-09-19T03:26:18;9.40;99.90
14188;DHT22;7175;51.978;5.330;2022-09-19T03:28:47;9.40;99.90
14188;DHT22;7175;51.978;5.330;2022-09-19T03:31:17;9.30;99.90
14188;DHT22;7175;51.978;5.330;2022-09-19T03:33:49;9.30;99.90
14188;DHT22;7175;51.978;5.330;2022-09-19T03:36:18;9.30;99.90
14188;DHT22;7175;51.978;5.330;2022-09-19T03:38:51;9.20;99.90
14188;DHT22;7175;51.978;5.330;2022-09-19T03:41:22;9.30;99.90
14188;DHT22;7175;51.978;5.330;2022-09-19T03:43:51;9.20;99.90
14188;DHT22;7175;51.978;5.330;2022-09-19T03:46:20;9.20;99.90
14188;DHT22;7175;51.978;5.330;2022-09-19T03:48:49;9.10;99.90
14188;DHT22;7175;51.978;5.330;2022-09-19T03:51:18;9.10;99.90
14188;DHT22;7175;51.978;5.330;2022-09-19T03:53:48;9.10;99.90
14188;DHT22;7175;51.978;5.330;2022-09-19T03:56:17;9.10;99.90
14188;DHT22;7175;51.978;5.330;2022-09-19T03:58:47;9.10;99.90
14188;DHT22;7175;51.978;5.330;2022-09-19T04:01:15;9.10;99.90
14188;DHT22;7175;51.978;5.330;2022-09-19T04:03:54;9.00;99.90
14188;DHT22;7175;51.978;5.330;2022-09-19T04:06:23;9.00;99.90
14188;DHT22;7175;51.978;5.330;2022-09-19T04:08:51;9.10;99.90
14188;DHT22;7175;51.978;5.330;2022-09-19T04:11:20;9.10;99.90
14188;DHT22;7175;51.978;5.330;2022-09-19T04:13:49;9.20;99.90
14188;DHT22;7175;51.978;5.330;2022-09-19T04:16:18;9.20;99.90
14188;DHT22;7175;51.978;5.330;2022-09-19T04:18:51;9.20;99.90
14188;DHT22;7175;51.978;5.330;2022-09-19T04:21:21;9.20;99.90
14188;DHT22;7175;51.978;5.330;2022-09-19T04:23:52;9.20;99.90
14188;DHT22;7175;51.978;5.330;2022-09-19T04:26:21;9.20;99.90
14188;DHT22;7175;51.978;5.330;2022-09-19T04:28:51;9.20;99.90
14188;DHT22;7175;51.978;5.330;2022-09-19T04:31:20;9.40;99.90
14188;DHT22;7175;51.978;5.330;2022-09-19T04:33:49;9.30;99.90
14188;DHT22;7175;51.978;5.330;2022-09-19T04:36:18;9.30;99.90
14188;DHT22;7175;51.978;5.330;2022-09-19T04:38:48;9.30;99.90
14188;DHT22;7175;51.978;5.330;2022-09-19T04:41:22;9.30;99.90
14188;DHT22;7175;51.978;5.330;2022-09-19T04:43:51;9.30;99.90
14188;DHT22;7175;51.978;5.330;2022-09-19T04:46:19;9.30;99.90
14188;DHT22;7175;51.978;5.330;2022-09-19T04:48:48;9.30;99.90
14188;DHT22;7175;51.978;5.330;2022-09-19T04:51:24;9.30;99.90
14188;DHT22;7175;51.978;5.330;2022-09-19T04:53:55;9.30;99.90
14188;DHT22;7175;51.978;5.330;2022-09-19T04:56:24;9.30;99.90
14188;DHT22;7175;51.978;5.330;2022-09-19T04:58:54;9.20;99.90
14188;DHT22;7175;51.978;5.330;2022-09-19T05:01:35;9.20;99.90
14188;DHT22;7175;51.978;5.330;2022-09-19T05:04:06;9.20;99.90
14188;DHT22;7175;51.978;5.330;2022-09-19T05:06:47;9.20;99.90
14188;DHT22;7175;51.978;5.330;2022-09-19T05:09:17;9.20;99.90
14188;DHT22;7175;51.978;5.330;2022-09-19T05:11:45;9.20;99.90
14188;DHT22;7175;51.978;5.330;2022-09-19T05:14:19;9.20;99.90
14188;DHT22;7175;51.978;5.330;2022-09-19T05:16:49;9.20;99.90
14188;DHT22;7175;51.978;5.330;2022-09-19T05:19:24;9.20;99.90
14188;DHT22;7175;51.978;5.330;2022-09-19T05:21:52;9.20;99.90
14188;DHT22;7175;51.978;5.330;2022-09-19T05:24:23;9.20;99.90
14188;DHT22;7175;51.978;5.330;2022-09-19T05:26:54;9.20;99.90
14188;DHT22;7175;51.978;5.330;2022-09-19T05:29:25;9.20;99.90
14188;DHT22;7175;51.978;5.330;2022-09-19T05:32:14;9.30;99.90
14188;DHT22;7175;51.978;5.330;2022-09-19T05:34:52;9.40;99.90
14188;DHT22;7175;51.978;5.330;2022-09-19T05:37:40;9.50;99.90
14188;DHT22;7175;51.978;5.330;2022-09-19T05:40:10;9.60;99.90
14188;DHT22;7175;51.978;5.330;2022-09-19T05:42:43;9.80;99.90
14188;DHT22;7175;51.978;5.330;2022-09-19T05:45:15;9.80;99.90
14188;DHT22;7175;51.978;5.330;2022-09-19T05:47:44;9.90;99.90
14188;DHT22;7175;51.978;5.330;2022-09-19T05:50:13;9.90;99.90
14188;DHT22;7175;51.978;5.330;2022-09-19T05:52:43;10.00;99.90
14188;DHT22;7175;51.978;5.330;2022-09-19T05:55:39;10.10;99.90
14188;DHT22;7175;51.978;5.330;2022-09-19T05:58:09;10.00;99.90
14188;DHT22;7175;51.978;5.330;2022-09-19T06:00:37;10.20;99.90
14188;DHT22;7175;51.978;5.330;2022-09-19T06:03:24;10.20;99.90
14188;DHT22;7175;51.978;5.330;2022-09-19T06:05:53;10.30;99.90
14188;DHT22;7175;51.978;5.330;2022-09-19T06:08:22;10.40;99.90
14188;DHT22;7175;51.978;5.330;2022-09-19T06:10:53;10.50;99.90
14188;DHT22;7175;51.978;5.330;2022-09-19T06:13:23;10.60;99.90
14188;DHT22;7175;51.978;5.330;2022-09-19T06:16:11;10.70;99.90
14188;DHT22;7175;51.978;5.330;2022-09-19T06:18:46;10.90;99.90
14188;DHT22;7175;51.978;5.330;2022-09-19T06:21:15;11.20;99.90
14188;DHT22;7175;51.978;5.330;2022-09-19T06:23:43;11.20;99.90
14188;DHT22;7175;51.978;5.330;2022-09-19T06:26:13;11.40;99.90
14188;DHT22;7175;51.978;5.330;2022-09-19T06:28:42;11.50;99.90
14188;DHT22;7175;51.978;5.330;2022-09-19T06:31:10;11.60;99.90
14188;DHT22;7175;51.978;5.330;2022-09-19T06:33:40;11.80;99.90
14188;DHT22;7175;51.978;5.330;2022-09-19T06:36:10;12.00;99.90
14188;DHT22;7175;51.978;5.330;2022-09-19T06:38:41;12.20;99.90
14188;DHT22;7175;51.978;5.330;2022-09-19T06:41:13;12.10;99.90
14188;DHT22;7175;51.978;5.330;2022-09-19T06:44:01;12.10;99.90
14188;DHT22;7175;51.978;5.330;2022-09-19T06:46:30;12.10;99.90
14188;DHT22;7175;51.978;5.330;2022-09-19T06:49:00;12.30;99.90
14188;DHT22;7175;51.978;5.330;2022-09-19T06:51:31;12.40;99.90
14188;DHT22;7175;51.978;5.330;2022-09-19T06:54:04;12.60;99.90
14188;DHT22;7175;51.978;5.330;2022-09-19T06:56:34;12.60;99.90
14188;DHT22;7175;51.978;5.330;2022-09-19T06:59:05;12.80;99.90
14188;DHT22;7175;51.978;5.330;2022-09-19T07:01:34;12.90;99.90
14188;DHT22;7175;51.978;5.330;2022-09-19T07:04:04;13.00;99.90
14188;DHT22;7175;51.978;5.330;2022-09-19T07:06:32;13.00;99.90
14188;DHT22;7175;51.978;5.330;2022-09-19T07:09:05;13.00;99.90
14188;DHT22;7175;51.978;5.330;2022-09-19T07:11:36;13.10;99.90
14188;DHT22;7175;51.978;5.330;2022-09-19T07:14:11;13.20;99.90
14188;DHT22;7175;51.978;5.330;2022-09-19T07:16:40;13.20;99.90
14188;DHT22;7175;51.978;5.330;2022-09-19T07:19:08;13.30;99.90
14188;DHT22;7175;51.978;5.330;2022-09-19T07:21:37;13.50;99.90
14188;DHT22;7175;51.978;5.330;2022-09-19T07:24:06;13.60;99.90
14188;DHT22;7175;51.978;5.330;2022-09-19T07:26:39;13.50;99.90
14188;DHT22;7175;51.978;5.330;2022-09-19T07:29:12;13.60;99.90
14188;DHT22;7175;51.978;5.330;2022-09-19T07:31:40;13.90;99.90
14188;DHT22;7175;51.978;5.330;2022-09-19T07:34:09;14.20;99.90
14188;DHT22;7175;51.978;5.330;2022-09-19T07:36:38;14.30;99.90
14188;DHT22;7175;51.978;5.330;2022-09-19T07:39:06;14.30;99.90
14188;DHT22;7175;51.978;5.330;2022-09-19T07:41:42;14.40;99.90
14188;DHT22;7175;51.978;5.330;2022-09-19T07:44:10;14.60;99.90
14188;DHT22;7175;51.978;5.330;2022-09-19T07:46:38;14.70;99.90
14188;DHT22;7175;51.978;5.330;2022-09-19T07:49:28;14.70;99.90
14188;DHT22;7175;51.978;5.330;2022-09-19T07:51:57;14.60;99.90
14188;DHT22;7175;51.978;5.330;2022-09-19T07:54:26;14.50;99.90
14188;DHT22;7175;51.978;5.330;2022-09-19T07:56:57;14.40;99.90
14188;DHT22;7175;51.978;5.330;2022-09-19T07:59:26;14.30;99.90
14188;DHT22;7175;51.978;5.330;2022-09-19T08:01:54;14.20;99.90
14188;DHT22;7175;51.978;5.330;2022-09-19T08:04:22;14.30;99.90
14188;DHT22;7175;51.978;5.330;2022-09-19T08:06:51;14.30;99.90
14188;DHT22;7175;51.978;5.330;2022-09-19T08:09:20;14.20;99.90
14188;DHT22;7175;51.978;5.330;2022-09-19T08:11:48;14.30;99.90
14188;DHT22;7175;51.978;5.330;2022-09-19T08:14:18;14.30;99.90
14188;DHT22;7175;51.978;5.330;2022-09-19T08:16:50;14.30;99.90
14188;DHT22;7175;51.978;5.330;2022-09-19T08:19:18;14.30;99.90
14188;DHT22;7175;51.978;5.330;2022-09-19T08:21:47;14.30;99.90
14188;DHT22;7175;51.978;5.330;2022-09-19T08:24:19;14.40;99.90
14188;DHT22;7175;51.978;5.330;2022-09-19T08:26:49;14.60;99.90
14188;DHT22;7175;51.978;5.330;2022-09-19T08:29:18;14.90;99.90
14188;DHT22;7175;51.978;5.330;2022-09-19T08:31:48;15.30;99.90
14188;DHT22;7175;51.978;5.330;2022-09-19T08:34:16;15.50;99.90
14188;DHT22;7175;51.978;5.330;2022-09-19T08:36:45;15.70;99.90
14188;DHT22;7175;51.978;5.330;2022-09-19T08:39:13;15.80;99.90
14188;DHT22;7175;51.978;5.330;2022-09-19T08:41:52;16.00;99.90
14188;DHT22;7175;51.978;5.330;2022-09-19T08:44:38;16.20;99.90
14188;DHT22;7175;51.978;5.330;2022-09-19T08:47:12;16.30;99.90
14188;DHT22;7175;51.978;5.330;2022-09-19T08:49:45;16.40;99.90
14188;DHT22;7175;51.978;5.330;2022-09-19T08:52:23;16.50;99.90
14188;DHT22;7175;51.978;5.330;2022-09-19T08:54:54;16.60;99.90
14188;DHT22;7175;51.978;5.330;2022-09-19T08:57:26;16.80;99.90
14188;DHT22;7175;51.978;5.330;2022-09-19T09:00:00;17.10;99.90
14188;DHT22;7175;51.978;5.330;2022-09-19T09:02:37;17.00;99.90
14188;DHT22;7175;51.978;5.330;2022-09-19T09:05:37;16.80;99.90
14188;DHT22;7175;51.978;5.330;2022-09-19T09:08:18;16.50;99.90
14188;DHT22;7175;51.978;5.330;2022-09-19T09:10:53;16.20;99.90
14188;DHT22;7175;51.978;5.330;2022-09-19T09:13:32;16.10;99.90
14188;DHT22;7175;51.978;5.330;2022-09-19T09:16:33;15.80;99.90
14188;DHT22;7175;51.978;5.330;2022-09-19T09:19:20;15.40;99.90
14188;DHT22;7175;51.978;5.330;2022-09-19T09:21:58;15.20;99.90
14188;DHT22;7175;51.978;5.330;2022-09-19T09:24:34;15.00;99.90
14188;DHT22;7175;51.978;5.330;2022-09-19T09:27:10;14.90;99.90
14188;DHT22;7175;51.978;5.330;2022-09-19T09:29:42;14.90;99.90
14188;DHT22;7175;51.978;5.330;2022-09-19T09:32:17;15.60;99.90
14188;DHT22;7175;51.978;5.330;2022-09-19T09:34:54;15.90;99.90
14188;DHT22;7175;51.978;5.330;2022-09-19T09:37:28;15.90;99.90
14188;DHT22;7175;51.978;5.330;2022-09-19T09:40:02;15.80;99.90
14188;DHT22;7175;51.978;5.330;2022-09-19T09:42:45;15.80;99.90
14188;DHT22;7175;51.978;5.330;2022-09-19T09:45:17;15.50;99.90
14188;DHT22;7175;51.978;5.330;2022-09-19T09:47:57;15.50;99.90
14188;DHT22;7175;51.978;5.330;2022-09-19T09:50:49;15.40;99.90
14188;DHT22;7175;51.978;5.330;2022-09-19T09:53:27;16.00;99.90
14188;DHT22;7175;51.978;5.330;2022-09-19T09:56:04;16.70;99.90
14188;DHT22;7175;51.978;5.330;2022-09-19T09:58:55;17.10;99.90
14188;DHT22;7175;51.978;5.330;2022-09-19T10:01:35;16.50;99.90
14188;DHT22;7175;51.978;5.330;2022-09-19T10:04:30;16.10;99.90
14188;DHT22;7175;51.978;5.330;2022-09-19T10:07:08;15.80;99.90
14188;DHT22;7175;51.978;5.330;2022-09-19T10:09:43;15.90;99.90
14188;DHT22;7175;51.978;5.330;2022-09-19T10:12:17;15.70;99.90
14188;DHT22;7175;51.978;5.330;2022-09-19T10:15:14;15.70;99.90
14188;DHT22;7175;51.978;5.330;2022-09-19T10:17:46;15.50;99.90
14188;DHT22;7175;51.978;5.330;2022-09-19T10:20:21;15.40;99.90
14188;DHT22;7175;51.978;5.330;2022-09-19T10:22:58;15.40;99.90
14188;DHT22;7175;51.978;5.330;2022-09-19T10:25:26;15.60;99.90
14188;DHT22;7175;51.978;5.330;2022-09-19T10:28:01;16.10;99.90
14188;DHT22;7175;51.978;5.330;2022-09-19T10:30:56;16.80;99.90
14188;DHT22;7175;51.978;5.330;2022-09-19T10:33:27;16.40;99.90
14188;DHT22;7175;51.978;5.330;2022-09-19T10:36:03;16.70;99.90
14188;DHT22;7175;51.978;5.330;2022-09-19T10:38:50;17.20;99.90
14188;DHT22;7175;51.978;5.330;2022-09-19T10:41:22;17.00;99.90
14188;DHT22;7175;51.978;5.330;2022-09-19T10:43:54;16.70;99.90
14188;DHT22;7175;51.978;5.330;2022-09-19T10:46:26;16.40;99.90
14188;DHT22;7175;51.978;5.330;2022-09-19T10:49:02;15.90;99.90
14188;DHT22;7175;51.978;5.330;2022-09-19T10:51:37;15.70;99.90
14188;DHT22;7175;51.978;5.330;2022-09-19T10:54:11;15.50;99.90
14188;DHT22;7175;51.978;5.330;2022-09-19T10:56:41;15.40;99.90
14188;DHT22;7175;51.978;5.330;2022-09-19T10:59:23;15.50;99.90
14188;DHT22;7175;51.978;5.330;2022-09-19T11:02:18;15.60;99.90
14188;DHT22;7175;51.978;5.330;2022-09-19T11:04:57;15.80;99.90
14188;DHT22;7175;51.978;5.330;2022-09-19T11:07:50;15.70;99.90
14188;DHT22;7175;51.978;5.330;2022-09-19T11:10:39;15.40;99.90
14188;DHT22;7175;51.978;5.330;2022-09-19T11:13:26;15.30;99.90
14188;DHT22;7175;51.978;5.330;2022-09-19T11:23:21;15.20;99.90
14188;DHT22;7175;51.978;5.330;2022-09-19T11:28:57;15.90;99.90
14188;DHT22;7175;51.978;5.330;2022-09-19T11:31:40;16.50;99.90
14188;DHT22;7175;51.978;5.330;2022-09-19T11:34:35;16.60;99.90
14188;DHT22;7175;51.978;5.330;2022-09-19T11:40:33;16.40;99.90
14188;DHT22;7175;51.978;5.330;2022-09-19T11:43:22;16.10;99.90
14188;DHT22;7175;51.978;5.330;2022-09-19T11:46:04;16.10;99.90
14188;DHT22;7175;51.978;5.330;2022-09-19T11:48:59;16.10;99.90
14188;DHT22;7175;51.978;5.330;2022-09-19T11:51:40;16.20;99.90
14188;DHT22;7175;51.978;5.330;2022-09-19T11:54:27;16.70;99.90
14188;DHT22;7175;51.978;5.330;2022-09-19T11:57:26;17.10;99.90
14188;DHT22;7175;51.978;5.330;2022-09-19T12:00:06;17.60;99.90
14188;DHT22;7175;51.978;5.330;2022-09-19T12:06:06;18.50;99.90
14188;DHT22;7175;51.978;5.330;2022-09-19T12:08:56;18.50;99.90
14188;DHT22;7175;51.978;5.330;2022-09-19T12:11:37;17.90;99.90
14188;DHT22;7175;51.978;5.330;2022-09-19T12:14:29;16.90;99.90
14188;DHT22;7175;51.978;5.330;2022-09-19T12:17:09;16.10;99.90
14188;DHT22;7175;51.978;5.330;2022-09-19T12:20:04;15.80;99.90
14188;DHT22;7175;51.978;5.330;2022-09-19T12:22:49;15.60;99.90
14188;DHT22;7175;51.978;5.330;2022-09-19T12:25:29;15.50;99.90
14188;DHT22;7175;51.978;5.330;2022-09-19T12:28:03;15.20;99.90
14188;DHT22;7175;51.978;5.330;2022-09-19T12:30:37;15.30;99.90
14188;DHT22;7175;51.978;5.330;2022-09-19T12:33:14;15.30;99.90
14188;DHT22;7175;51.978;5.330;2022-09-19T12:35:47;15.50;99.90
14188;DHT22;7175;51.978;5.330;2022-09-19T12:38:21;15.90;99.90
14188;DHT22;7175;51.978;5.330;2022-09-19T12:40:55;16.70;99.90
14188;DHT22;7175;51.978;5.330;2022-09-19T12:43:34;17.20;99.90
14188;DHT22;7175;51.978;5.330;2022-09-19T12:46:15;17.40;99.90
14188;DHT22;7175;51.978;5.330;2022-09-19T12:48:57;17.30;99.90
14188;DHT22;7175;51.978;5.330;2022-09-19T12:51:39;17.20;99.90
14188;DHT22;7175;51.978;5.330;2022-09-19T12:54:15;17.10;99.90
14188;DHT22;7175;51.978;5.330;2022-09-19T12:56:49;16.90;99.90
14188;DHT22;7175;51.978;5.330;2022-09-19T12:59:22;17.30;99.90
14188;DHT22;7175;51.978;5.330;2022-09-19T13:01:54;17.70;99.90
14188;DHT22;7175;51.978;5.330;2022-09-19T13:04:30;18.60;99.90
14188;DHT22;7175;51.978;5.330;2022-09-19T13:07:05;18.80;99.90
14188;DHT22;7175;51.978;5.330;2022-09-19T13:09:48;19.10;99.90
14188;DHT22;7175;51.978;5.330;2022-09-19T13:12:21;19.20;99.90
14188;DHT22;7175;51.978;5.330;2022-09-19T13:14:53;19.10;99.90
14188;DHT22;7175;51.978;5.330;2022-09-19T13:17:26;18.90;99.90
14188;DHT22;7175;51.978;5.330;2022-09-19T13:20:16;18.90;99.90
14188;DHT22;7175;51.978;5.330;2022-09-19T13:23:03;18.40;99.90
14188;DHT22;7175;51.978;5.330;2022-09-19T13:25:49;18.90;99.90
14188;DHT22;7175;51.978;5.330;2022-09-19T13:28:28;18.60;99.90
14188;DHT22;7175;51.978;5.330;2022-09-19T13:31:10;17.90;99.90
14188;DHT22;7175;51.978;5.330;2022-09-19T13:33:45;17.30;99.90
14188;DHT22;7175;51.978;5.330;2022-09-19T13:36:16;17.20;99.90
14188;DHT22;7175;51.978;5.330;2022-09-19T13:38:46;16.70;99.90
14188;DHT22;7175;51.978;5.330;2022-09-19T13:41:20;16.60;99.90
14188;DHT22;7175;51.978;5.330;2022-09-19T13:44:12;16.70;99.90
14188;DHT22;7175;51.978;5.330;2022-09-19T13:46:51;16.60;99.90
14188;DHT22;7175;51.978;5.330;2022-09-19T13:49:26;16.60;99.90
14188;DHT22;7175;51.978;5.330;2022-09-19T13:52:00;16.90;99.90
14188;DHT22;7175;51.978;5.330;2022-09-19T13:54:37;17.20;99.90
14188;DHT22;7175;51.978;5.330;2022-09-19T13:57:16;17.20;99.90
14188;DHT22;7175;51.978;5.330;2022-09-19T13:59:49;17.00;99.90
14188;DHT22;7175;51.978;5.330;2022-09-19T14:02:25;17.00;99.90
14188;DHT22;7175;51.978;5.330;2022-09-19T14:05:02;17.20;99.90
14188;DHT22;7175;51.978;5.330;2022-09-19T14:07:36;17.40;99.90
14188;DHT22;7175;51.978;5.330;2022-09-19T14:10:28;17.40;99.90
14188;DHT22;7175;51.978;5.330;2022-09-19T14:13:02;17.30;99.90
14188;DHT22;7175;51.978;5.330;2022-09-19T14:16:02;17.30;99.90
14188;DHT22;7175;51.978;5.330;2022-09-19T14:18:47;17.20;99.90
14188;DHT22;7175;51.978;5.330;2022-09-19T14:24:48;17.40;99.90
14188;DHT22;7175;51.978;5.330;2022-09-19T14:27:51;17.40;99.90
14188;DHT22;7175;51.978;5.330;2022-09-19T14:30:43;17.60;99.90
14188;DHT22;7175;51.978;5.330;2022-09-19T14:33:33;17.50;99.90
14188;DHT22;7175;51.978;5.330;2022-09-19T14:36:15;17.60;99.90
14188;DHT22;7175;51.978;5.330;2022-09-19T14:39:03;17.40;99.90
14188;DHT22;7175;51.978;5.330;2022-09-19T14:41:47;17.20;99.90
14188;DHT22;7175;51.978;5.330;2022-09-19T14:47:41;16.70;99.90
14188;DHT22;7175;51.978;5.330;2022-09-19T14:50:17;16.50;99.90
14188;DHT22;7175;51.978;5.330;2022-09-19T14:52:52;16.50;99.90
14188;DHT22;7175;51.978;5.330;2022-09-19T14:55:28;16.50;99.90
14188;DHT22;7175;51.978;5.330;2022-09-19T14:57:57;16.50;99.90
14188;DHT22;7175;51.978;5.330;2022-09-19T15:00:27;16.50;99.90
14188;DHT22;7175;51.978;5.330;2022-09-19T15:03:08;16.40;99.90
14188;DHT22;7175;51.978;5.330;2022-09-19T15:05:44;16.30;99.90
14188;DHT22;7175;51.978;5.330;2022-09-19T15:08:14;16.10;99.90
14188;DHT22;7175;51.978;5.330;2022-09-19T15:10:57;16.00;99.90
14188;DHT22;7175;51.978;5.330;2022-09-19T15:13:44;15.80;99.90
14188;DHT22;7175;51.978;5.330;2022-09-19T15:16:13;15.70;99.90
14188;DHT22;7175;51.978;5.330;2022-09-19T15:18:43;15.60;99.90
14188;DHT22;7175;51.978;5.330;2022-09-19T15:21:21;15.70;99.90
14188;DHT22;7175;51.978;5.330;2022-09-19T15:24:01;15.70;99.90
14188;DHT22;7175;51.978;5.330;2022-09-19T15:26:42;15.80;99.90
14188;DHT22;7175;51.978;5.330;2022-09-19T15:29:30;15.90;99.90
14188;DHT22;7175;51.978;5.330;2022-09-19T15:32:19;16.00;99.90
14188;DHT22;7175;51.978;5.330;2022-09-19T15:34:54;15.90;99.90
14188;DHT22;7175;51.978;5.330;2022-09-19T15:37:42;15.90;99.90
14188;DHT22;7175;51.978;5.330;2022-09-19T15:40:16;15.80;99.90
14188;DHT22;7175;51.978;5.330;2022-09-19T15:42:46;15.70;99.90
14188;DHT22;7175;51.978;5.330;2022-09-19T15:45:36;15.60;99.90
14188;DHT22;7175;51.978;5.330;2022-09-19T15:48:09;15.60;99.90
14188;DHT22;7175;51.978;5.330;2022-09-19T15:50:53;15.60;99.90
14188;DHT22;7175;51.978;5.330;2022-09-19T15:53:27;15.60;99.90
14188;DHT22;7175;51.978;5.330;2022-09-19T15:56:03;15.50;99.90
14188;DHT22;7175;51.978;5.330;2022-09-19T15:58:36;15.70;99.90
14188;DHT22;7175;51.978;5.330;2022-09-19T16:01:12;15.70;99.90
14188;DHT22;7175;51.978;5.330;2022-09-19T16:03:56;15.60;99.90
14188;DHT22;7175;51.978;5.330;2022-09-19T16:06:33;15.50;99.90
14188;DHT22;7175;51.978;5.330;2022-09-19T16:09:31;15.50;99.90
14188;DHT22;7175;51.978;5.330;2022-09-19T16:12:02;15.50;99.90
14188;DHT22;7175;51.978;5.330;2022-09-19T16:14:37;15.50;99.90
14188;DHT22;7175;51.978;5.330;2022-09-19T16:17:13;15.50;99.90
14188;DHT22;7175;51.978;5.330;2022-09-19T16:19:53;15.40;99.90
14188;DHT22;7175;51.978;5.330;2022-09-19T16:22:35;15.50;99.90
14188;DHT22;7175;51.978;5.330;2022-09-19T16:25:12;15.50;99.90
14188;DHT22;7175;51.978;5.330;2022-09-19T16:27:42;15.60;99.90
14188;DHT22;7175;51.978;5.330;2022-09-19T16:30:11;15.60;99.90
14188;DHT22;7175;51.978;5.330;2022-09-19T16:32:56;15.60;99.90
14188;DHT22;7175;51.978;5.330;2022-09-19T16:35:27;15.70;99.90
14188;DHT22;7175;51.978;5.330;2022-09-19T16:38:06;15.60;99.90
14188;DHT22;7175;51.978;5.330;2022-09-19T16:40:34;15.60;99.90
14188;DHT22;7175;51.978;5.330;2022-09-19T16:43:33;15.70;99.90
14188;DHT22;7175;51.978;5.330;2022-09-19T16:46:14;15.60;99.90
14188;DHT22;7175;51.978;5.330;2022-09-19T16:48:49;15.60;99.90
14188;DHT22;7175;51.978;5.330;2022-09-19T16:51:18;15.50;99.90
14188;DHT22;7175;51.978;5.330;2022-09-19T16:53:48;15.50;99.90
14188;DHT22;7175;51.978;5.330;2022-09-19T16:56:17;15.50;99.90
14188;DHT22;7175;51.978;5.330;2022-09-19T16:58:47;15.50;99.90
14188;DHT22;7175;51.978;5.330;2022-09-19T17:01:16;15.40;99.90
14188;DHT22;7175;51.978;5.330;2022-09-19T17:03:45;15.40;99.90
14188;DHT22;7175;51.978;5.330;2022-09-19T17:06:17;15.40;99.90
14188;DHT22;7175;51.978;5.330;2022-09-19T17:08:45;15.30;99.90
14188;DHT22;7175;51.978;5.330;2022-09-19T17:11:16;15.20;99.90
14188;DHT22;7175;51.978;5.330;2022-09-19T17:13:44;15.20;99.90